sensor_id;sensor_type;location;lat;lon;timestamp;P1;durP1;ratioP1;P2;durP2;ratioP2
59054;SDS011;44845;51.444;7.460;2024-03-07T00:00:19;44.70;;;23.63;;
59054;SDS011;44845;51.444;7.460;2024-03-07T00:02:50;55.20;;;25.60;;
59054;SDS011;44845;51.444;7.460;2024-03-07T00:05:16;48.80;;;24.98;;
59054;SDS011;44845;51.444;7.460;2024-03-07T00:07:43;50.40;;;26.08;;
59054;SDS011;44845;51.444;7.460;2024-03-07T00:10:09;55.03;;;25.88;;
59054;SDS011;44845;51.444;7.460;2024-03-07T00:12:39;48.45;;;25.02;;
59054;SDS011;44845;51.444;7.460;2024-03-07T00:15:08;48.28;;;25.55;;
59054;SDS011;44845;51.444;7.460;2024-03-07T00:17:34;45.78;;;24.27;;
59054;SDS011;44845;51.444;7.460;2024-03-07T00:20:00;48.20;;;23.60;;
59054;SDS011;44845;51.444;7.460;2024-03-07T00:22:26;43.40;;;24.30;;
59054;SDS011;44845;51.444;7.460;2024-03-07T00:24:54;50.90;;;26.33;;
59054;SDS011;44845;51.444;7.460;2024-03-07T00:27:20;49.65;;;25.45;;
59054;SDS011;44845;51.444;7.460;2024-03-07T00:29:47;46.45;;;25.02;;
59054;SDS011;44845;51.444;7.460;2024-03-07T00:32:21;44.70;;;23.70;;
59054;SDS011;44845;51.444;7.460;2024-03-07T00:34:48;43.33;;;24.92;;
59054;SDS011;44845;51.444;7.460;2024-03-07T00:37:13;43.72;;;24.67;;
59054;SDS011;44845;51.444;7.460;2024-03-07T00:39:39;49.40;;;25.67;;
59054;SDS011;44845;51.444;7.460;2024-03-07T00:42:05;49.70;;;26.58;;
59054;SDS011;44845;51.444;7.460;2024-03-07T00:44:31;49.17;;;25.33;;
59054;SDS011;44845;51.444;7.460;2024-03-07T00:46:56;46.10;;;24.95;;
59054;SDS011;44845;51.444;7.460;2024-03-07T00:49:22;43.30;;;23.90;;
59054;SDS011;44845;51.444;7.460;2024-03-07T00:51:47;46.75;;;24.10;;
59054;SDS011;44845;51.444;7.460;2024-03-07T00:54:13;47.28;;;24.83;;
59054;SDS011;44845;51.444;7.460;2024-03-07T00:56:38;46.03;;;24.50;;
59054;SDS011;44845;51.444;7.460;2024-03-07T00:59:04;47.88;;;25.95;;
59054;SDS011;44845;51.444;7.460;2024-03-07T01:01:30;42.22;;;23.90;;
59054;SDS011;44845;51.444;7.460;2024-03-07T01:03:57;46.50;;;24.58;;
59054;SDS011;44845;51.444;7.460;2024-03-07T01:06:23;47.67;;;24.77;;
59054;SDS011;44845;51.444;7.460;2024-03-07T01:08:48;46.78;;;25.23;;
59054;SDS011;44845;51.444;7.460;2024-03-07T01:11:14;47.08;;;23.92;;
59054;SDS011;44845;51.444;7.460;2024-03-07T01:13:39;46.97;;;25.58;;
59054;SDS011;44845;51.444;7.460;2024-03-07T01:16:05;42.15;;;23.23;;
59054;SDS011;44845;51.444;7.460;2024-03-07T01:18:30;43.08;;;23.98;;
59054;SDS011;44845;51.444;7.460;2024-03-07T01:20:58;45.45;;;23.73;;
59054;SDS011;44845;51.444;7.460;2024-03-07T01:23:27;46.70;;;24.35;;
59054;SDS011;44845;51.444;7.460;2024-03-07T01:25:55;49.15;;;24.30;;
59054;SDS011;44845;51.444;7.460;2024-03-07T01:28:24;43.38;;;23.45;;
59054;SDS011;44845;51.444;7.460;2024-03-07T01:30:50;48.15;;;22.92;;
59054;SDS011;44845;51.444;7.460;2024-03-07T01:33:16;44.55;;;24.60;;
59054;SDS011;44845;51.444;7.460;2024-03-07T01:35:41;42.55;;;23.10;;
59054;SDS011;44845;51.444;7.460;2024-03-07T01:38:09;45.53;;;24.48;;
59054;SDS011;44845;51.444;7.460;2024-03-07T01:40:35;45.50;;;23.65;;
59054;SDS011;44845;51.444;7.460;2024-03-07T01:43:01;45.13;;;23.10;;
59054;SDS011;44845;51.444;7.460;2024-03-07T01:45:27;45.45;;;23.58;;
59054;SDS011;44845;51.444;7.460;2024-03-07T01:47:53;38.58;;;22.30;;
59054;SDS011;44845;51.444;7.460;2024-03-07T01:50:18;40.50;;;22.13;;
59054;SDS011;44845;51.444;7.460;2024-03-07T01:52:43;47.60;;;23.30;;
59054;SDS011;44845;51.444;7.460;2024-03-07T01:55:09;41.45;;;22.70;;
59054;SDS011;44845;51.444;7.460;2024-03-07T01:57:36;40.55;;;22.13;;
59054;SDS011;44845;51.444;7.460;2024-03-07T02:00:03;38.88;;;21.92;;
59054;SDS011;44845;51.444;7.460;2024-03-07T02:02:31;41.03;;;22.85;;
59054;SDS011;44845;51.444;7.460;2024-03-07T02:04:57;42.50;;;22.88;;
59054;SDS011;44845;51.444;7.460;2024-03-07T02:07:23;39.67;;;22.13;;
59054;SDS011;44845;51.444;7.460;2024-03-07T02:09:48;39.38;;;22.23;;
59054;SDS011;44845;51.444;7.460;2024-03-07T02:12:14;42.15;;;22.20;;
59054;SDS011;44845;51.444;7.460;2024-03-07T02:14:39;44.95;;;22.65;;
59054;SDS011;44845;51.444;7.460;2024-03-07T02:17:04;43.38;;;22.48;;
59054;SDS011;44845;51.444;7.460;2024-03-07T02:19:30;40.70;;;21.52;;
59054;SDS011;44845;51.444;7.460;2024-03-07T02:21:57;42.00;;;23.38;;
59054;SDS011;44845;51.444;7.460;2024-03-07T02:24:22;44.75;;;21.58;;
59054;SDS011;44845;51.444;7.460;2024-03-07T02:26:48;42.80;;;23.75;;
59054;SDS011;44845;51.444;7.460;2024-03-07T02:29:14;42.00;;;22.58;;
59054;SDS011;44845;51.444;7.460;2024-03-07T02:31:39;39.83;;;22.35;;
59054;SDS011;44845;51.444;7.460;2024-03-07T02:34:06;39.00;;;21.67;;
59054;SDS011;44845;51.444;7.460;2024-03-07T02:36:32;37.00;;;23.05;;
59054;SDS011;44845;51.444;7.460;2024-03-07T02:38:58;39.28;;;21.75;;
59054;SDS011;44845;51.444;7.460;2024-03-07T02:41:24;37.70;;;22.17;;
59054;SDS011;44845;51.444;7.460;2024-03-07T02:43:49;40.00;;;22.27;;
59054;SDS011;44845;51.444;7.460;2024-03-07T02:46:15;36.63;;;22.08;;
59054;SDS011;44845;51.444;7.460;2024-03-07T02:48:41;36.42;;;21.08;;
59054;SDS011;44845;51.444;7.460;2024-03-07T02:51:06;43.15;;;23.45;;
59054;SDS011;44845;51.444;7.460;2024-03-07T02:53:32;38.63;;;22.70;;
59054;SDS011;44845;51.444;7.460;2024-03-07T02:55:57;39.67;;;23.00;;
59054;SDS011;44845;51.444;7.460;2024-03-07T02:58:23;39.60;;;22.52;;
59054;SDS011;44845;51.444;7.460;2024-03-07T03:00:49;41.17;;;23.20;;
59054;SDS011;44845;51.444;7.460;2024-03-07T03:03:24;39.30;;;21.92;;
59054;SDS011;44845;51.444;7.460;2024-03-07T03:05:50;37.60;;;21.55;;
59054;SDS011;44845;51.444;7.460;2024-03-07T03:08:15;41.60;;;22.42;;
59054;SDS011;44845;51.444;7.460;2024-03-07T03:10:41;42.90;;;21.38;;
59054;SDS011;44845;51.444;7.460;2024-03-07T03:13:06;39.10;;;21.85;;
59054;SDS011;44845;51.444;7.460;2024-03-07T03:15:31;38.42;;;21.70;;
59054;SDS011;44845;51.444;7.460;2024-03-07T03:17:57;38.33;;;22.45;;
59054;SDS011;44845;51.444;7.460;2024-03-07T03:20:26;41.03;;;22.27;;
59054;SDS011;44845;51.444;7.460;2024-03-07T03:22:58;41.17;;;21.58;;
59054;SDS011;44845;51.444;7.460;2024-03-07T03:25:24;40.17;;;21.50;;
59054;SDS011;44845;51.444;7.460;2024-03-07T03:27:51;39.70;;;23.20;;
59054;SDS011;44845;51.444;7.460;2024-03-07T03:30:16;38.13;;;22.23;;
59054;SDS011;44845;51.444;7.460;2024-03-07T03:32:44;40.63;;;22.95;;
59054;SDS011;44845;51.444;7.460;2024-03-07T03:35:10;39.50;;;21.33;;
59054;SDS011;44845;51.444;7.460;2024-03-07T03:37:44;40.85;;;21.52;;
59054;SDS011;44845;51.444;7.460;2024-03-07T03:40:10;41.90;;;21.85;;
59054;SDS011;44845;51.444;7.460;2024-03-07T03:42:38;36.33;;;19.85;;
59054;SDS011;44845;51.444;7.460;2024-03-07T03:45:04;38.47;;;21.38;;
59054;SDS011;44845;51.444;7.460;2024-03-07T03:47:37;40.67;;;21.17;;
59054;SDS011;44845;51.444;7.460;2024-03-07T03:50:06;40.03;;;22.58;;
59054;SDS011;44845;51.444;7.460;2024-03-07T03:52:32;38.90;;;21.65;;
59054;SDS011;44845;51.444;7.460;2024-03-07T03:55:00;37.75;;;21.73;;
59054;SDS011;44845;51.444;7.460;2024-03-07T03:57:25;39.90;;;22.40;;
59054;SDS011;44845;51.444;7.460;2024-03-07T03:59:51;40.50;;;21.65;;
59054;SDS011;44845;51.444;7.460;2024-03-07T04:02:17;43.25;;;23.02;;
59054;SDS011;44845;51.444;7.460;2024-03-07T04:04:43;43.00;;;23.50;;
59054;SDS011;44845;51.444;7.460;2024-03-07T04:07:10;47.10;;;24.25;;
59054;SDS011;44845;51.444;7.460;2024-03-07T04:09:37;39.75;;;22.80;;
59054;SDS011;44845;51.444;7.460;2024-03-07T04:12:02;41.03;;;23.80;;
59054;SDS011;44845;51.444;7.460;2024-03-07T04:14:28;37.17;;;21.67;;
59054;SDS011;44845;51.444;7.460;2024-03-07T04:16:57;35.88;;;21.90;;
59054;SDS011;44845;51.444;7.460;2024-03-07T04:19:23;43.45;;;23.45;;
59054;SDS011;44845;51.444;7.460;2024-03-07T04:21:48;39.10;;;20.55;;
59054;SDS011;44845;51.444;7.460;2024-03-07T04:24:13;39.55;;;21.92;;
59054;SDS011;44845;51.444;7.460;2024-03-07T04:26:39;38.63;;;21.35;;
59054;SDS011;44845;51.444;7.460;2024-03-07T04:29:06;38.45;;;21.50;;
59054;SDS011;44845;51.444;7.460;2024-03-07T04:31:33;40.08;;;21.02;;
59054;SDS011;44845;51.444;7.460;2024-03-07T04:33:58;43.35;;;22.25;;
59054;SDS011;44845;51.444;7.460;2024-03-07T04:36:24;39.78;;;21.95;;
59054;SDS011;44845;51.444;7.460;2024-03-07T04:38:49;41.45;;;21.45;;
59054;SDS011;44845;51.444;7.460;2024-03-07T04:41:16;45.45;;;23.08;;
59054;SDS011;44845;51.444;7.460;2024-03-07T04:43:41;43.30;;;22.90;;
59054;SDS011;44845;51.444;7.460;2024-03-07T04:46:10;43.08;;;22.30;;
59054;SDS011;44845;51.444;7.460;2024-03-07T04:48:35;40.03;;;21.60;;
59054;SDS011;44845;51.444;7.460;2024-03-07T04:51:01;40.13;;;22.33;;
59054;SDS011;44845;51.444;7.460;2024-03-07T04:53:26;39.28;;;20.83;;
59054;SDS011;44845;51.444;7.460;2024-03-07T04:55:51;45.95;;;23.30;;
59054;SDS011;44845;51.444;7.460;2024-03-07T04:58:17;40.65;;;22.05;;
59054;SDS011;44845;51.444;7.460;2024-03-07T05:00:43;41.33;;;23.05;;
59054;SDS011;44845;51.444;7.460;2024-03-07T05:03:08;40.95;;;21.58;;
59054;SDS011;44845;51.444;7.460;2024-03-07T05:05:34;43.40;;;22.55;;
59054;SDS011;44845;51.444;7.460;2024-03-07T05:08:00;41.05;;;21.50;;
59054;SDS011;44845;51.444;7.460;2024-03-07T05:10:25;40.28;;;21.23;;
59054;SDS011;44845;51.444;7.460;2024-03-07T05:12:53;42.42;;;22.38;;
59054;SDS011;44845;51.444;7.460;2024-03-07T05:15:18;38.65;;;21.02;;
59054;SDS011;44845;51.444;7.460;2024-03-07T05:17:44;38.63;;;22.02;;
59054;SDS011;44845;51.444;7.460;2024-03-07T05:20:09;38.65;;;20.92;;
59054;SDS011;44845;51.444;7.460;2024-03-07T05:22:44;42.22;;;21.45;;
59054;SDS011;44845;51.444;7.460;2024-03-07T05:25:12;40.00;;;21.60;;
59054;SDS011;44845;51.444;7.460;2024-03-07T05:27:38;44.08;;;21.75;;
59054;SDS011;44845;51.444;7.460;2024-03-07T05:30:03;38.67;;;20.58;;
59054;SDS011;44845;51.444;7.460;2024-03-07T05:32:34;39.08;;;20.02;;
59054;SDS011;44845;51.444;7.460;2024-03-07T05:34:59;35.88;;;20.45;;
59054;SDS011;44845;51.444;7.460;2024-03-07T05:37:24;40.80;;;21.63;;
59054;SDS011;44845;51.444;7.460;2024-03-07T05:39:50;34.58;;;20.63;;
59054;SDS011;44845;51.444;7.460;2024-03-07T05:42:16;35.03;;;20.35;;
59054;SDS011;44845;51.444;7.460;2024-03-07T05:44:42;34.50;;;20.13;;
59054;SDS011;44845;51.444;7.460;2024-03-07T05:47:07;36.70;;;20.85;;
59054;SDS011;44845;51.444;7.460;2024-03-07T05:49:33;36.53;;;20.00;;
59054;SDS011;44845;51.444;7.460;2024-03-07T05:51:59;38.72;;;20.65;;
59054;SDS011;44845;51.444;7.460;2024-03-07T05:54:25;39.17;;;21.73;;
59054;SDS011;44845;51.444;7.460;2024-03-07T05:56:50;36.25;;;19.75;;
59054;SDS011;44845;51.444;7.460;2024-03-07T05:59:16;36.33;;;19.92;;
59054;SDS011;44845;51.444;7.460;2024-03-07T06:01:42;36.47;;;21.33;;
59054;SDS011;44845;51.444;7.460;2024-03-07T06:04:07;33.75;;;19.58;;
59054;SDS011;44845;51.444;7.460;2024-03-07T06:06:35;34.80;;;19.70;;
59054;SDS011;44845;51.444;7.460;2024-03-07T06:09:02;40.35;;;20.73;;
59054;SDS011;44845;51.444;7.460;2024-03-07T06:11:35;44.53;;;20.95;;
59054;SDS011;44845;51.444;7.460;2024-03-07T06:14:02;36.92;;;21.08;;
59054;SDS011;44845;51.444;7.460;2024-03-07T06:16:31;41.63;;;21.55;;
59054;SDS011;44845;51.444;7.460;2024-03-07T06:19:00;36.05;;;21.92;;
59054;SDS011;44845;51.444;7.460;2024-03-07T06:21:29;37.33;;;21.40;;
59054;SDS011;44845;51.444;7.460;2024-03-07T06:23:58;39.55;;;22.95;;
59054;SDS011;44845;51.444;7.460;2024-03-07T06:26:28;41.47;;;22.38;;
59054;SDS011;44845;51.444;7.460;2024-03-07T06:29:10;41.83;;;22.52;;
59054;SDS011;44845;51.444;7.460;2024-03-07T06:31:41;43.10;;;21.95;;
59054;SDS011;44845;51.444;7.460;2024-03-07T06:34:07;45.05;;;23.17;;
59054;SDS011;44845;51.444;7.460;2024-03-07T06:36:36;48.75;;;24.88;;
59054;SDS011;44845;51.444;7.460;2024-03-07T06:39:02;51.58;;;25.17;;
59054;SDS011;44845;51.444;7.460;2024-03-07T06:41:32;46.10;;;24.95;;
59054;SDS011;44845;51.444;7.460;2024-03-07T06:44:00;44.75;;;24.58;;
59054;SDS011;44845;51.444;7.460;2024-03-07T06:46:26;44.58;;;23.85;;
59054;SDS011;44845;51.444;7.460;2024-03-07T06:48:51;37.50;;;20.70;;
59054;SDS011;44845;51.444;7.460;2024-03-07T06:51:17;40.63;;;21.80;;
59054;SDS011;44845;51.444;7.460;2024-03-07T06:53:42;37.55;;;20.60;;
59054;SDS011;44845;51.444;7.460;2024-03-07T06:56:08;39.30;;;22.17;;
59054;SDS011;44845;51.444;7.460;2024-03-07T06:58:34;40.40;;;20.77;;
59054;SDS011;44845;51.444;7.460;2024-03-07T07:00:59;36.95;;;20.98;;
59054;SDS011;44845;51.444;7.460;2024-03-07T07:03:25;39.53;;;22.17;;
59054;SDS011;44845;51.444;7.460;2024-03-07T07:05:53;34.53;;;20.42;;
59054;SDS011;44845;51.444;7.460;2024-03-07T07:08:19;40.33;;;20.90;;
59054;SDS011;44845;51.444;7.460;2024-03-07T07:10:45;33.28;;;20.55;;
59054;SDS011;44845;51.444;7.460;2024-03-07T07:13:10;37.67;;;20.15;;
59054;SDS011;44845;51.444;7.460;2024-03-07T07:15:36;38.38;;;20.63;;
59054;SDS011;44845;51.444;7.460;2024-03-07T07:18:04;31.80;;;19.27;;
59054;SDS011;44845;51.444;7.460;2024-03-07T07:20:32;34.20;;;20.13;;
59054;SDS011;44845;51.444;7.460;2024-03-07T07:22:59;35.40;;;20.23;;
59054;SDS011;44845;51.444;7.460;2024-03-07T07:25:27;33.40;;;19.88;;
59054;SDS011;44845;51.444;7.460;2024-03-07T07:27:52;31.25;;;18.95;;
59054;SDS011;44845;51.444;7.460;2024-03-07T07:30:18;38.80;;;21.70;;
59054;SDS011;44845;51.444;7.460;2024-03-07T07:32:48;32.33;;;19.35;;
59054;SDS011;44845;51.444;7.460;2024-03-07T07:35:15;35.85;;;20.00;;
59054;SDS011;44845;51.444;7.460;2024-03-07T07:40:06;33.00;;;19.42;;
59054;SDS011;44845;51.444;7.460;2024-03-07T07:42:34;33.65;;;20.17;;
59054;SDS011;44845;51.444;7.460;2024-03-07T07:45:00;32.90;;;19.63;;
59054;SDS011;44845;51.444;7.460;2024-03-07T07:47:26;33.58;;;18.88;;
59054;SDS011;44845;51.444;7.460;2024-03-07T07:49:51;32.70;;;19.63;;
59054;SDS011;44845;51.444;7.460;2024-03-07T07:52:16;31.55;;;17.30;;
59054;SDS011;44845;51.444;7.460;2024-03-07T07:54:44;29.70;;;18.33;;
59054;SDS011;44845;51.444;7.460;2024-03-07T07:57:09;32.45;;;19.08;;
59054;SDS011;44845;51.444;7.460;2024-03-07T07:59:35;33.08;;;18.63;;
59054;SDS011;44845;51.444;7.460;2024-03-07T08:02:01;34.45;;;19.05;;
59054;SDS011;44845;51.444;7.460;2024-03-07T08:04:27;34.13;;;20.05;;
59054;SDS011;44845;51.444;7.460;2024-03-07T08:06:52;30.10;;;19.15;;
59054;SDS011;44845;51.444;7.460;2024-03-07T08:09:17;32.63;;;18.92;;
59054;SDS011;44845;51.444;7.460;2024-03-07T08:11:43;32.92;;;18.75;;
59054;SDS011;44845;51.444;7.460;2024-03-07T08:14:08;33.60;;;19.13;;
59054;SDS011;44845;51.444;7.460;2024-03-07T08:16:33;31.73;;;17.80;;
59054;SDS011;44845;51.444;7.460;2024-03-07T08:18:59;37.05;;;20.27;;
59054;SDS011;44845;51.444;7.460;2024-03-07T08:21:24;36.42;;;20.58;;
59054;SDS011;44845;51.444;7.460;2024-03-07T08:23:50;35.95;;;20.67;;
59054;SDS011;44845;51.444;7.460;2024-03-07T08:26:15;37.22;;;19.38;;
59054;SDS011;44845;51.444;7.460;2024-03-07T08:28:41;36.17;;;18.23;;
59054;SDS011;44845;51.444;7.460;2024-03-07T08:31:06;31.65;;;17.92;;
59054;SDS011;44845;51.444;7.460;2024-03-07T08:33:31;32.70;;;17.48;;
59054;SDS011;44845;51.444;7.460;2024-03-07T08:35:58;31.42;;;18.83;;
59054;SDS011;44845;51.444;7.460;2024-03-07T08:38:24;34.00;;;18.83;;
59054;SDS011;44845;51.444;7.460;2024-03-07T08:40:49;31.63;;;17.77;;
59054;SDS011;44845;51.444;7.460;2024-03-07T08:43:15;29.50;;;16.67;;
59054;SDS011;44845;51.444;7.460;2024-03-07T08:45:40;31.05;;;18.63;;
59054;SDS011;44845;51.444;7.460;2024-03-07T08:48:06;28.85;;;17.25;;
59054;SDS011;44845;51.444;7.460;2024-03-07T08:50:33;30.58;;;17.60;;
59054;SDS011;44845;51.444;7.460;2024-03-07T08:52:59;29.92;;;17.02;;
59054;SDS011;44845;51.444;7.460;2024-03-07T08:55:25;30.50;;;16.65;;
59054;SDS011;44845;51.444;7.460;2024-03-07T08:57:51;28.92;;;16.50;;
59054;SDS011;44845;51.444;7.460;2024-03-07T09:00:17;33.53;;;16.77;;
59054;SDS011;44845;51.444;7.460;2024-03-07T09:02:49;35.92;;;18.65;;
59054;SDS011;44845;51.444;7.460;2024-03-07T09:05:18;35.50;;;18.67;;
59054;SDS011;44845;51.444;7.460;2024-03-07T09:07:45;34.20;;;19.10;;
59054;SDS011;44845;51.444;7.460;2024-03-07T09:10:12;32.92;;;18.67;;
59054;SDS011;44845;51.444;7.460;2024-03-07T09:12:37;36.08;;;18.73;;
59054;SDS011;44845;51.444;7.460;2024-03-07T09:15:04;30.80;;;19.35;;
59054;SDS011;44845;51.444;7.460;2024-03-07T09:17:29;32.65;;;19.15;;
59054;SDS011;44845;51.444;7.460;2024-03-07T09:19:54;34.15;;;19.60;;
59054;SDS011;44845;51.444;7.460;2024-03-07T09:22:20;30.55;;;18.15;;
59054;SDS011;44845;51.444;7.460;2024-03-07T09:24:45;31.30;;;17.45;;
59054;SDS011;44845;51.444;7.460;2024-03-07T09:27:11;34.78;;;18.33;;
59054;SDS011;44845;51.444;7.460;2024-03-07T09:29:38;33.42;;;18.15;;
59054;SDS011;44845;51.444;7.460;2024-03-07T09:32:04;30.00;;;17.65;;
59054;SDS011;44845;51.444;7.460;2024-03-07T09:34:29;29.48;;;16.10;;
59054;SDS011;44845;51.444;7.460;2024-03-07T09:36:55;29.30;;;16.90;;
59054;SDS011;44845;51.444;7.460;2024-03-07T09:39:21;32.60;;;15.90;;
59054;SDS011;44845;51.444;7.460;2024-03-07T09:41:46;28.83;;;17.75;;
59054;SDS011;44845;51.444;7.460;2024-03-07T09:44:12;29.30;;;17.40;;
59054;SDS011;44845;51.444;7.460;2024-03-07T09:46:42;29.77;;;16.55;;
59054;SDS011;44845;51.444;7.460;2024-03-07T09:49:11;27.48;;;17.02;;
59054;SDS011;44845;51.444;7.460;2024-03-07T09:51:38;31.48;;;16.27;;
59054;SDS011;44845;51.444;7.460;2024-03-07T09:54:04;27.75;;;17.13;;
59054;SDS011;44845;51.444;7.460;2024-03-07T09:56:30;34.03;;;17.65;;
59054;SDS011;44845;51.444;7.460;2024-03-07T09:59:01;27.42;;;17.38;;
59054;SDS011;44845;51.444;7.460;2024-03-07T10:01:29;31.58;;;17.13;;
59054;SDS011;44845;51.444;7.460;2024-03-07T10:03:59;30.08;;;17.00;;
59054;SDS011;44845;51.444;7.460;2024-03-07T10:06:36;31.65;;;16.77;;
59054;SDS011;44845;51.444;7.460;2024-03-07T10:09:05;28.08;;;17.25;;
59054;SDS011;44845;51.444;7.460;2024-03-07T10:11:32;24.58;;;16.35;;
59054;SDS011;44845;51.444;7.460;2024-03-07T10:13:58;28.63;;;16.88;;
59054;SDS011;44845;51.444;7.460;2024-03-07T10:16:23;27.75;;;16.40;;
59054;SDS011;44845;51.444;7.460;2024-03-07T10:18:49;29.42;;;17.48;;
59054;SDS011;44845;51.444;7.460;2024-03-07T10:21:18;28.65;;;16.52;;
59054;SDS011;44845;51.444;7.460;2024-03-07T10:23:44;25.05;;;16.45;;
59054;SDS011;44845;51.444;7.460;2024-03-07T10:26:10;25.90;;;15.93;;
59054;SDS011;44845;51.444;7.460;2024-03-07T10:28:35;23.98;;;14.75;;
59054;SDS011;44845;51.444;7.460;2024-03-07T10:31:03;29.13;;;15.13;;
59054;SDS011;44845;51.444;7.460;2024-03-07T10:33:29;29.30;;;16.02;;
59054;SDS011;44845;51.444;7.460;2024-03-07T10:35:58;26.05;;;15.50;;
59054;SDS011;44845;51.444;7.460;2024-03-07T10:38:23;27.52;;;16.75;;
59054;SDS011;44845;51.444;7.460;2024-03-07T10:40:52;25.92;;;15.05;;
59054;SDS011;44845;51.444;7.460;2024-03-07T10:43:18;27.00;;;16.65;;
59054;SDS011;44845;51.444;7.460;2024-03-07T10:45:46;32.45;;;16.95;;
59054;SDS011;44845;51.444;7.460;2024-03-07T10:48:13;27.10;;;15.90;;
59054;SDS011;44845;51.444;7.460;2024-03-07T10:53:15;27.42;;;17.50;;
59054;SDS011;44845;51.444;7.460;2024-03-07T10:58:47;24.45;;;15.35;;
59054;SDS011;44845;51.444;7.460;2024-03-07T11:01:39;28.40;;;15.18;;
59054;SDS011;44845;51.444;7.460;2024-03-07T11:04:14;24.58;;;15.60;;
59054;SDS011;44845;51.444;7.460;2024-03-07T11:06:40;25.60;;;16.27;;
59054;SDS011;44845;51.444;7.460;2024-03-07T11:09:06;24.13;;;16.20;;
59054;SDS011;44845;51.444;7.460;2024-03-07T11:11:36;28.20;;;16.30;;
59054;SDS011;44845;51.444;7.460;2024-03-07T11:14:02;23.42;;;15.15;;
59054;SDS011;44845;51.444;7.460;2024-03-07T11:16:29;25.08;;;15.80;;
59054;SDS011;44845;51.444;7.460;2024-03-07T11:21:51;26.10;;;16.52;;
59054;SDS011;44845;51.444;7.460;2024-03-07T11:24:29;26.92;;;15.98;;
59054;SDS011;44845;51.444;7.460;2024-03-07T11:26:59;25.02;;;15.63;;
59054;SDS011;44845;51.444;7.460;2024-03-07T11:29:40;21.30;;;14.65;;
59054;SDS011;44845;51.444;7.460;2024-03-07T11:32:08;22.25;;;14.15;;
59054;SDS011;44845;51.444;7.460;2024-03-07T11:34:37;23.30;;;15.55;;
59054;SDS011;44845;51.444;7.460;2024-03-07T11:37:06;22.33;;;14.35;;
59054;SDS011;44845;51.444;7.460;2024-03-07T11:39:42;24.02;;;15.43;;
59054;SDS011;44845;51.444;7.460;2024-03-07T11:42:25;27.73;;;16.35;;
59054;SDS011;44845;51.444;7.460;2024-03-07T11:44:53;24.63;;;16.20;;
59054;SDS011;44845;51.444;7.460;2024-03-07T11:47:26;25.38;;;16.40;;
59054;SDS011;44845;51.444;7.460;2024-03-07T11:50:00;22.20;;;14.15;;
59054;SDS011;44845;51.444;7.460;2024-03-07T11:52:27;21.90;;;14.27;;
59054;SDS011;44845;51.444;7.460;2024-03-07T11:54:52;24.17;;;15.00;;
59054;SDS011;44845;51.444;7.460;2024-03-07T11:57:18;30.30;;;15.68;;
59054;SDS011;44845;51.444;7.460;2024-03-07T11:59:57;23.08;;;16.08;;
59054;SDS011;44845;51.444;7.460;2024-03-07T12:02:25;23.55;;;15.23;;
59054;SDS011;44845;51.444;7.460;2024-03-07T12:04:52;26.58;;;16.50;;
59054;SDS011;44845;51.444;7.460;2024-03-07T12:07:18;26.20;;;16.35;;
59054;SDS011;44845;51.444;7.460;2024-03-07T12:09:44;22.52;;;15.10;;
59054;SDS011;44845;51.444;7.460;2024-03-07T12:12:15;25.80;;;15.63;;
59054;SDS011;44845;51.444;7.460;2024-03-07T12:14:42;23.20;;;14.88;;
59054;SDS011;44845;51.444;7.460;2024-03-07T12:17:08;22.13;;;14.63;;
59054;SDS011;44845;51.444;7.460;2024-03-07T12:19:34;26.00;;;16.38;;
59054;SDS011;44845;51.444;7.460;2024-03-07T12:22:03;24.63;;;15.30;;
59054;SDS011;44845;51.444;7.460;2024-03-07T12:24:28;23.77;;;14.60;;
59054;SDS011;44845;51.444;7.460;2024-03-07T12:29:36;20.05;;;13.73;;
59054;SDS011;44845;51.444;7.460;2024-03-07T12:32:07;20.30;;;11.88;;
59054;SDS011;44845;51.444;7.460;2024-03-07T12:34:35;21.98;;;13.35;;
59054;SDS011;44845;51.444;7.460;2024-03-07T12:37:05;22.10;;;12.70;;
59054;SDS011;44845;51.444;7.460;2024-03-07T12:39:31;22.73;;;12.35;;
59054;SDS011;44845;51.444;7.460;2024-03-07T12:42:01;18.52;;;11.77;;
59054;SDS011;44845;51.444;7.460;2024-03-07T12:44:28;20.63;;;13.27;;
59054;SDS011;44845;51.444;7.460;2024-03-07T12:47:07;21.45;;;13.25;;
59054;SDS011;44845;51.444;7.460;2024-03-07T12:49:34;18.02;;;11.52;;
59054;SDS011;44845;51.444;7.460;2024-03-07T12:52:00;17.40;;;11.43;;
59054;SDS011;44845;51.444;7.460;2024-03-07T12:54:25;17.00;;;10.43;;
59054;SDS011;44845;51.444;7.460;2024-03-07T12:56:52;16.35;;;10.85;;
59054;SDS011;44845;51.444;7.460;2024-03-07T12:59:17;15.38;;;10.27;;
59054;SDS011;44845;51.444;7.460;2024-03-07T13:01:44;16.67;;;11.20;;
59054;SDS011;44845;51.444;7.460;2024-03-07T13:04:12;15.57;;;10.40;;
59054;SDS011;44845;51.444;7.460;2024-03-07T13:06:37;14.02;;;9.88;;
59054;SDS011;44845;51.444;7.460;2024-03-07T13:09:08;14.90;;;10.10;;
59054;SDS011;44845;51.444;7.460;2024-03-07T13:11:38;15.57;;;10.35;;
59054;SDS011;44845;51.444;7.460;2024-03-07T13:14:11;17.10;;;10.68;;
59054;SDS011;44845;51.444;7.460;2024-03-07T13:16:37;17.90;;;10.43;;
59054;SDS011;44845;51.444;7.460;2024-03-07T13:19:02;16.05;;;9.85;;
59054;SDS011;44845;51.444;7.460;2024-03-07T13:21:29;17.90;;;9.95;;
59054;SDS011;44845;51.444;7.460;2024-03-07T13:24:00;16.25;;;9.25;;
59054;SDS011;44845;51.444;7.460;2024-03-07T13:26:25;17.30;;;10.43;;
59054;SDS011;44845;51.444;7.460;2024-03-07T13:28:51;15.85;;;9.95;;
59054;SDS011;44845;51.444;7.460;2024-03-07T13:31:18;14.05;;;9.18;;
59054;SDS011;44845;51.444;7.460;2024-03-07T13:33:47;14.68;;;8.80;;
59054;SDS011;44845;51.444;7.460;2024-03-07T13:36:16;13.57;;;8.90;;
59054;SDS011;44845;51.444;7.460;2024-03-07T13:38:47;16.48;;;9.57;;
59054;SDS011;44845;51.444;7.460;2024-03-07T13:41:23;14.40;;;9.18;;
59054;SDS011;44845;51.444;7.460;2024-03-07T13:43:50;12.88;;;9.10;;
59054;SDS011;44845;51.444;7.460;2024-03-07T13:46:16;15.82;;;9.32;;
59054;SDS011;44845;51.444;7.460;2024-03-07T13:48:43;15.10;;;9.48;;
59054;SDS011;44845;51.444;7.460;2024-03-07T13:51:09;16.45;;;9.55;;
59054;SDS011;44845;51.444;7.460;2024-03-07T13:53:34;14.68;;;8.32;;
59054;SDS011;44845;51.444;7.460;2024-03-07T14:01:21;16.98;;;9.48;;
59054;SDS011;44845;51.444;7.460;2024-03-07T14:12:34;12.43;;;7.60;;
59054;SDS011;44845;51.444;7.460;2024-03-07T14:15:18;13.77;;;8.07;;
59054;SDS011;44845;51.444;7.460;2024-03-07T14:18:30;13.75;;;7.00;;
59054;SDS011;44845;51.444;7.460;2024-03-07T14:21:29;13.38;;;7.70;;
59054;SDS011;44845;51.444;7.460;2024-03-07T14:30:00;14.88;;;8.35;;
59054;SDS011;44845;51.444;7.460;2024-03-07T14:32:34;13.48;;;8.15;;
59054;SDS011;44845;51.444;7.460;2024-03-07T14:35:02;12.27;;;8.52;;
59054;SDS011;44845;51.444;7.460;2024-03-07T14:40:36;16.98;;;9.15;;
59054;SDS011;44845;51.444;7.460;2024-03-07T14:43:03;13.38;;;8.48;;
59054;SDS011;44845;51.444;7.460;2024-03-07T14:45:31;16.27;;;9.15;;
59054;SDS011;44845;51.444;7.460;2024-03-07T14:48:01;17.35;;;8.95;;
59054;SDS011;44845;51.444;7.460;2024-03-07T14:50:27;17.42;;;8.95;;
59054;SDS011;44845;51.444;7.460;2024-03-07T14:52:54;14.73;;;8.48;;
59054;SDS011;44845;51.444;7.460;2024-03-07T14:55:20;16.83;;;9.73;;
59054;SDS011;44845;51.444;7.460;2024-03-07T14:57:46;13.68;;;9.27;;
59054;SDS011;44845;51.444;7.460;2024-03-07T15:00:12;17.33;;;9.98;;